Main page
METAR-TAF:

METAR-TAF

Airports :

Trieste – Friuli Venezia Giulia Airport

Trieste / Ronchi dei Legionari, Italy

latitude: 45-49N, longitude: 013-29E, elevation: 12 m

Current weather observation

The report was made 24 minutes ago, at 16:20 UTC
Wind 8 kt from the West/Southwest, varying between Southwest and West
Temperature 31°C
Humidity 40%
Pressure 1017 hPa
Visibility 10 km or more
Few clouds at a height of 8000 ft

METAR: LIPQ 201620Z 25008KT 220V280 9999 FEW080 31/16 Q1017

Time: 18:44 (16:44 UTC)

Forecast

The report was made 5 hours and 44 minutes ago, at 11:00 UTC
Forecast valid from 20 at 12 UTC to 21 at 12 UTC
Wind 5 kt from variable directions
Visibility 10 km or more
no clouds below 1500 m and no cumulonimbus

TAF: LIPQ 201100Z 2012/2112 VRB05KT CAVOK

Weather observations and forecasts of more than 4000 airports (METAR and TAF reports).

The available stations are represented by yellow and red dots on the map.

Hover mouse over dot to see the name of the station.

Then click to see weather observations and forecasts.

To change the map : click on the green buttons with a black cross to zoom in, on the green button with a dash to zoom out, or on the green arrows for adjacent maps.


METAR-TAF: